Aérodrome :
LOGIN :

S'inscrire | Disclaimer

   EN    FR    IT 

 










Légende :    VFR   VFR Marginal   IFR   IFR Intensif   IFR Très Intensif
Visi : 
Plafond : 
>= 8 km
>= 3000ft
5 à 8 km
1000 à 3000 ft
1500m à 5 km
500 à 1000 ft
800 à 1500m
200 à 500 ft
< 800m
< 200 ft
Symboles :   Orages  Brouillard  Fortes neiges  Fortes précipitations  Vent > 20 kt
SIGMETs :   Divers  Orages  Givrage  Turbulence  Onde Orograph.  Cendres Volcan.






- Altitude de l'aérodrome : 164 ft
- Code IATA : VBY


ESSV - Visby

DERNIER METAR :
  • 142350Z AUTO 15005KT 0250 R03/P1500N R21/P1500N FG NCD 03/03 Q1020

METARs EXPIRÉS :
  • 142320Z AUTO 15005KT 0450 R03/P1500N R21/P1500N FG NCD 03/03 Q1020
  • 142250Z AUTO 15005KT 3700 BR NCD 03/03 Q1019
  • 142220Z AUTO 16006KT 4900 BR NCD 03/03 Q1019
  • 142150Z AUTO 16007KT 5000 BR NCD 03/03 Q1019
  • 142120Z AUTO 16006KT 5000 BR NCD 03/03 Q1018
  • 142050Z 17007KT CAVOK 03/02 Q1018

Prévision TAF périmée.



MET'MAP, la Météo Aéronautique d'un coup d'oeil ! - Copyright ORBIFLY Décembre 2007 - Disclaimer

ORBIFLY MET'MAP TEAM :

Programmation & Développement : Alexandra Zaïnal
Conception & Développement : Baudouin d'Aumeries
Co-Programmation & Développement : Marc-Olivier Méhu
Soutien technique & logistique : Manuel Goepfert

Contact : metmap@orbifly.com




SOURCES & CREDITS :

   NOAA